sensor_id;sensor_type;location;lat;lon;timestamp;P1;durP1;ratioP1;P2;durP2;ratioP2
14766;SDS011;7475;53.558;9.970;2023-06-19T00:01:17;7.38;;;6.70;;
14766;SDS011;7475;53.558;9.970;2023-06-19T00:03:42;5.90;;;4.90;;
14766;SDS011;7475;53.558;9.970;2023-06-19T00:06:08;4.88;;;4.47;;
14766;SDS011;7475;53.558;9.970;2023-06-19T00:08:33;10.27;;;6.40;;
14766;SDS011;7475;53.558;9.970;2023-06-19T00:10:59;7.88;;;4.70;;
14766;SDS011;7475;53.558;9.970;2023-06-19T00:13:24;5.63;;;4.63;;
14766;SDS011;7475;53.558;9.970;2023-06-19T00:15:50;5.00;;;4.50;;
14766;SDS011;7475;53.558;9.970;2023-06-19T00:18:15;10.13;;;8.43;;
14766;SDS011;7475;53.558;9.970;2023-06-19T00:20:42;5.80;;;4.85;;
14766;SDS011;7475;53.558;9.970;2023-06-19T00:23:11;7.97;;;4.50;;
14766;SDS011;7475;53.558;9.970;2023-06-19T00:25:38;5.05;;;4.55;;
14766;SDS011;7475;53.558;9.970;2023-06-19T00:28:05;4.70;;;4.30;;
14766;SDS011;7475;53.558;9.970;2023-06-19T00:30:37;10.27;;;6.80;;
14766;SDS011;7475;53.558;9.970;2023-06-19T00:33:02;6.28;;;4.63;;
14766;SDS011;7475;53.558;9.970;2023-06-19T00:35:28;6.70;;;6.05;;
14766;SDS011;7475;53.558;9.970;2023-06-19T00:37:53;5.65;;;5.13;;
14766;SDS011;7475;53.558;9.970;2023-06-19T00:40:28;5.47;;;4.50;;
14766;SDS011;7475;53.558;9.970;2023-06-19T00:42:56;4.95;;;4.38;;
14766;SDS011;7475;53.558;9.970;2023-06-19T00:45:23;5.32;;;4.82;;
14766;SDS011;7475;53.558;9.970;2023-06-19T00:47:49;5.53;;;4.65;;
14766;SDS011;7475;53.558;9.970;2023-06-19T00:50:15;6.65;;;4.65;;
14766;SDS011;7475;53.558;9.970;2023-06-19T00:52:42;4.95;;;4.55;;
14766;SDS011;7475;53.558;9.970;2023-06-19T00:55:08;8.15;;;4.72;;
14766;SDS011;7475;53.558;9.970;2023-06-19T00:57:34;6.45;;;4.18;;
14766;SDS011;7475;53.558;9.970;2023-06-19T01:00:00;6.20;;;4.40;;
14766;SDS011;7475;53.558;9.970;2023-06-19T01:02:29;5.22;;;4.72;;
14766;SDS011;7475;53.558;9.970;2023-06-19T01:04:55;6.88;;;6.25;;
14766;SDS011;7475;53.558;9.970;2023-06-19T01:10:06;5.60;;;4.25;;
14766;SDS011;7475;53.558;9.970;2023-06-19T01:12:37;5.65;;;4.88;;
14766;SDS011;7475;53.558;9.970;2023-06-19T01:15:07;6.25;;;4.70;;
14766;SDS011;7475;53.558;9.970;2023-06-19T01:17:35;4.70;;;4.30;;
14766;SDS011;7475;53.558;9.970;2023-06-19T01:20:00;5.10;;;4.70;;
14766;SDS011;7475;53.558;9.970;2023-06-19T01:22:31;5.18;;;4.75;;
14766;SDS011;7475;53.558;9.970;2023-06-19T01:24:57;5.32;;;4.82;;
14766;SDS011;7475;53.558;9.970;2023-06-19T01:27:23;5.95;;;5.10;;
14766;SDS011;7475;53.558;9.970;2023-06-19T01:29:50;5.38;;;4.88;;
14766;SDS011;7475;53.558;9.970;2023-06-19T01:32:30;5.78;;;5.28;;
14766;SDS011;7475;53.558;9.970;2023-06-19T01:34:59;5.70;;;5.20;;
14766;SDS011;7475;53.558;9.970;2023-06-19T01:37:27;6.07;;;5.20;;
14766;SDS011;7475;53.558;9.970;2023-06-19T01:39:54;5.40;;;4.90;;
14766;SDS011;7475;53.558;9.970;2023-06-19T01:42:21;5.40;;;5.00;;
14766;SDS011;7475;53.558;9.970;2023-06-19T01:44:47;7.80;;;5.40;;
14766;SDS011;7475;53.558;9.970;2023-06-19T01:47:12;6.18;;;5.57;;
14766;SDS011;7475;53.558;9.970;2023-06-19T01:49:38;8.95;;;5.80;;
14766;SDS011;7475;53.558;9.970;2023-06-19T01:52:04;5.78;;;5.18;;
14766;SDS011;7475;53.558;9.970;2023-06-19T01:54:29;5.47;;;4.90;;
14766;SDS011;7475;53.558;9.970;2023-06-19T01:56:56;6.90;;;5.80;;
14766;SDS011;7475;53.558;9.970;2023-06-19T01:59:22;6.15;;;4.93;;
14766;SDS011;7475;53.558;9.970;2023-06-19T02:01:48;5.78;;;5.10;;
14766;SDS011;7475;53.558;9.970;2023-06-19T02:04:13;6.22;;;5.65;;
14766;SDS011;7475;53.558;9.970;2023-06-19T02:06:38;5.88;;;5.28;;
14766;SDS011;7475;53.558;9.970;2023-06-19T02:09:03;6.70;;;5.38;;
14766;SDS011;7475;53.558;9.970;2023-06-19T02:11:29;5.88;;;5.30;;
14766;SDS011;7475;53.558;9.970;2023-06-19T02:13:54;5.82;;;5.32;;
14766;SDS011;7475;53.558;9.970;2023-06-19T02:16:19;6.68;;;5.50;;
14766;SDS011;7475;53.558;9.970;2023-06-19T02:18:45;6.75;;;5.80;;
14766;SDS011;7475;53.558;9.970;2023-06-19T02:21:10;6.40;;;5.80;;
14766;SDS011;7475;53.558;9.970;2023-06-19T02:23:35;6.38;;;5.78;;
14766;SDS011;7475;53.558;9.970;2023-06-19T02:26:01;6.78;;;6.05;;
14766;SDS011;7475;53.558;9.970;2023-06-19T02:28:26;5.63;;;5.05;;
14766;SDS011;7475;53.558;9.970;2023-06-19T02:30:55;5.97;;;5.47;;
14766;SDS011;7475;53.558;9.970;2023-06-19T02:33:20;6.13;;;5.53;;
14766;SDS011;7475;53.558;9.970;2023-06-19T02:35:45;6.13;;;5.53;;
14766;SDS011;7475;53.558;9.970;2023-06-19T02:38:11;9.13;;;6.05;;
14766;SDS011;7475;53.558;9.970;2023-06-19T02:40:37;6.72;;;6.03;;
14766;SDS011;7475;53.558;9.970;2023-06-19T02:43:03;6.22;;;5.63;;
14766;SDS011;7475;53.558;9.970;2023-06-19T02:45:28;8.75;;;6.28;;
14766;SDS011;7475;53.558;9.970;2023-06-19T02:47:54;6.85;;;5.90;;
14766;SDS011;7475;53.558;9.970;2023-06-19T02:50:19;6.30;;;5.70;;
14766;SDS011;7475;53.558;9.970;2023-06-19T02:52:45;5.97;;;5.35;;
14766;SDS011;7475;53.558;9.970;2023-06-19T02:55:10;7.90;;;6.15;;
14766;SDS011;7475;53.558;9.970;2023-06-19T02:57:35;6.82;;;6.20;;
14766;SDS011;7475;53.558;9.970;2023-06-19T03:00:01;7.10;;;6.20;;
14766;SDS011;7475;53.558;9.970;2023-06-19T03:02:26;6.30;;;5.50;;
14766;SDS011;7475;53.558;9.970;2023-06-19T03:04:52;6.78;;;6.18;;
14766;SDS011;7475;53.558;9.970;2023-06-19T03:07:17;6.68;;;6.07;;
14766;SDS011;7475;53.558;9.970;2023-06-19T03:09:42;6.13;;;5.53;;
14766;SDS011;7475;53.558;9.970;2023-06-19T03:12:08;6.03;;;5.43;;
14766;SDS011;7475;53.558;9.970;2023-06-19T03:14:34;6.30;;;5.63;;
14766;SDS011;7475;53.558;9.970;2023-06-19T03:16:59;7.90;;;6.32;;
14766;SDS011;7475;53.558;9.970;2023-06-19T03:19:24;7.47;;;6.78;;
14766;SDS011;7475;53.558;9.970;2023-06-19T03:21:50;7.47;;;6.57;;
14766;SDS011;7475;53.558;9.970;2023-06-19T03:24:15;6.93;;;6.22;;
14766;SDS011;7475;53.558;9.970;2023-06-19T03:26:41;9.35;;;6.25;;
14766;SDS011;7475;53.558;9.970;2023-06-19T03:29:06;6.55;;;5.93;;
14766;SDS011;7475;53.558;9.970;2023-06-19T03:31:31;7.07;;;5.82;;
14766;SDS011;7475;53.558;9.970;2023-06-19T03:33:56;9.52;;;6.30;;
14766;SDS011;7475;53.558;9.970;2023-06-19T03:36:22;6.85;;;6.22;;
14766;SDS011;7475;53.558;9.970;2023-06-19T03:38:48;6.60;;;6.00;;
14766;SDS011;7475;53.558;9.970;2023-06-19T03:41:13;7.50;;;6.68;;
14766;SDS011;7475;53.558;9.970;2023-06-19T03:43:39;7.15;;;6.40;;
14766;SDS011;7475;53.558;9.970;2023-06-19T03:46:04;6.95;;;6.28;;
14766;SDS011;7475;53.558;9.970;2023-06-19T03:48:30;6.40;;;5.90;;
14766;SDS011;7475;53.558;9.970;2023-06-19T03:50:55;6.93;;;6.22;;
14766;SDS011;7475;53.558;9.970;2023-06-19T03:53:21;6.45;;;5.85;;
14766;SDS011;7475;53.558;9.970;2023-06-19T03:55:46;8.43;;;6.30;;
14766;SDS011;7475;53.558;9.970;2023-06-19T03:58:12;7.05;;;6.30;;
14766;SDS011;7475;53.558;9.970;2023-06-19T04:00:37;7.30;;;6.60;;
14766;SDS011;7475;53.558;9.970;2023-06-19T04:03:02;8.13;;;6.72;;
14766;SDS011;7475;53.558;9.970;2023-06-19T04:05:27;10.43;;;6.85;;
14766;SDS011;7475;53.558;9.970;2023-06-19T04:07:53;6.60;;;6.00;;
14766;SDS011;7475;53.558;9.970;2023-06-19T04:10:18;8.32;;;6.32;;
14766;SDS011;7475;53.558;9.970;2023-06-19T04:12:43;7.15;;;6.47;;
14766;SDS011;7475;53.558;9.970;2023-06-19T04:15:10;6.53;;;5.93;;
14766;SDS011;7475;53.558;9.970;2023-06-19T04:17:36;8.52;;;7.05;;
14766;SDS011;7475;53.558;9.970;2023-06-19T04:20:01;7.13;;;6.43;;
14766;SDS011;7475;53.558;9.970;2023-06-19T04:22:35;8.07;;;6.72;;
14766;SDS011;7475;53.558;9.970;2023-06-19T04:25:01;6.82;;;6.22;;
14766;SDS011;7475;53.558;9.970;2023-06-19T04:27:26;7.50;;;6.55;;
14766;SDS011;7475;53.558;9.970;2023-06-19T04:29:51;6.90;;;6.30;;
14766;SDS011;7475;53.558;9.970;2023-06-19T04:32:18;7.25;;;6.10;;
14766;SDS011;7475;53.558;9.970;2023-06-19T04:34:43;6.85;;;6.25;;
14766;SDS011;7475;53.558;9.970;2023-06-19T04:37:11;8.40;;;6.90;;
14766;SDS011;7475;53.558;9.970;2023-06-19T04:39:36;7.57;;;6.65;;
14766;SDS011;7475;53.558;9.970;2023-06-19T04:42:02;7.65;;;6.40;;
14766;SDS011;7475;53.558;9.970;2023-06-19T04:44:27;8.15;;;6.35;;
14766;SDS011;7475;53.558;9.970;2023-06-19T04:46:55;7.47;;;6.43;;
14766;SDS011;7475;53.558;9.970;2023-06-19T04:49:29;6.82;;;6.00;;
14766;SDS011;7475;53.558;9.970;2023-06-19T04:51:55;7.85;;;6.40;;
14766;SDS011;7475;53.558;9.970;2023-06-19T04:54:21;6.97;;;6.28;;
14766;SDS011;7475;53.558;9.970;2023-06-19T04:56:46;7.20;;;6.50;;
14766;SDS011;7475;53.558;9.970;2023-06-19T04:59:12;7.05;;;6.35;;
14766;SDS011;7475;53.558;9.970;2023-06-19T05:01:37;8.73;;;6.65;;
14766;SDS011;7475;53.558;9.970;2023-06-19T05:04:05;7.40;;;6.32;;
14766;SDS011;7475;53.558;9.970;2023-06-19T05:06:30;13.27;;;6.18;;
14766;SDS011;7475;53.558;9.970;2023-06-19T05:08:56;6.93;;;5.72;;
14766;SDS011;7475;53.558;9.970;2023-06-19T05:11:21;7.35;;;6.35;;
14766;SDS011;7475;53.558;9.970;2023-06-19T05:13:46;7.75;;;6.15;;
14766;SDS011;7475;53.558;9.970;2023-06-19T05:16:12;7.30;;;6.60;;
14766;SDS011;7475;53.558;9.970;2023-06-19T05:18:41;7.70;;;6.90;;
14766;SDS011;7475;53.558;9.970;2023-06-19T05:21:06;7.57;;;6.88;;
14766;SDS011;7475;53.558;9.970;2023-06-19T05:23:31;7.45;;;6.78;;
14766;SDS011;7475;53.558;9.970;2023-06-19T05:25:57;7.97;;;6.68;;
14766;SDS011;7475;53.558;9.970;2023-06-19T05:28:22;8.68;;;6.68;;
14766;SDS011;7475;53.558;9.970;2023-06-19T05:30:47;8.07;;;6.55;;
14766;SDS011;7475;53.558;9.970;2023-06-19T05:33:15;8.80;;;6.32;;
14766;SDS011;7475;53.558;9.970;2023-06-19T05:35:41;10.93;;;6.28;;
14766;SDS011;7475;53.558;9.970;2023-06-19T05:38:15;7.95;;;6.75;;
14766;SDS011;7475;53.558;9.970;2023-06-19T05:40:41;8.50;;;6.78;;
14766;SDS011;7475;53.558;9.970;2023-06-19T05:43:06;7.63;;;6.57;;
14766;SDS011;7475;53.558;9.970;2023-06-19T05:45:31;7.25;;;6.53;;
14766;SDS011;7475;53.558;9.970;2023-06-19T05:47:57;8.38;;;6.53;;
14766;SDS011;7475;53.558;9.970;2023-06-19T05:50:22;7.63;;;6.47;;
14766;SDS011;7475;53.558;9.970;2023-06-19T05:52:47;10.48;;;6.82;;
14766;SDS011;7475;53.558;9.970;2023-06-19T05:55:12;8.50;;;6.78;;
14766;SDS011;7475;53.558;9.970;2023-06-19T05:57:38;10.60;;;7.38;;
14766;SDS011;7475;53.558;9.970;2023-06-19T06:00:03;8.10;;;6.35;;
14766;SDS011;7475;53.558;9.970;2023-06-19T06:02:30;10.63;;;7.50;;
14766;SDS011;7475;53.558;9.970;2023-06-19T06:04:56;8.88;;;6.78;;
14766;SDS011;7475;53.558;9.970;2023-06-19T06:07:21;11.65;;;7.38;;
14766;SDS011;7475;53.558;9.970;2023-06-19T06:09:47;19.92;;;7.80;;
14766;SDS011;7475;53.558;9.970;2023-06-19T06:12:21;11.20;;;7.13;;
14766;SDS011;7475;53.558;9.970;2023-06-19T06:14:46;10.27;;;7.85;;
14766;SDS011;7475;53.558;9.970;2023-06-19T06:17:11;11.50;;;7.82;;
14766;SDS011;7475;53.558;9.970;2023-06-19T06:19:36;8.65;;;7.75;;
14766;SDS011;7475;53.558;9.970;2023-06-19T06:22:02;8.75;;;7.93;;
14766;SDS011;7475;53.558;9.970;2023-06-19T06:24:28;11.45;;;7.57;;
14766;SDS011;7475;53.558;9.970;2023-06-19T06:26:53;10.07;;;8.13;;
14766;SDS011;7475;53.558;9.970;2023-06-19T06:29:18;11.30;;;7.70;;
14766;SDS011;7475;53.558;9.970;2023-06-19T06:31:45;10.18;;;8.23;;
14766;SDS011;7475;53.558;9.970;2023-06-19T06:34:12;13.07;;;8.10;;
14766;SDS011;7475;53.558;9.970;2023-06-19T06:36:37;9.55;;;7.78;;
14766;SDS011;7475;53.558;9.970;2023-06-19T06:39:03;12.00;;;8.43;;
14766;SDS011;7475;53.558;9.970;2023-06-19T06:41:28;16.48;;;8.85;;
14766;SDS011;7475;53.558;9.970;2023-06-19T06:43:54;10.38;;;7.80;;
14766;SDS011;7475;53.558;9.970;2023-06-19T06:46:20;10.85;;;9.63;;
14766;SDS011;7475;53.558;9.970;2023-06-19T06:48:46;10.95;;;8.52;;
14766;SDS011;7475;53.558;9.970;2023-06-19T06:51:11;9.95;;;8.90;;
14766;SDS011;7475;53.558;9.970;2023-06-19T06:53:36;10.07;;;8.00;;
14766;SDS011;7475;53.558;9.970;2023-06-19T06:56:02;9.90;;;8.02;;
14766;SDS011;7475;53.558;9.970;2023-06-19T06:58:28;9.60;;;8.68;;
14766;SDS011;7475;53.558;9.970;2023-06-19T07:00:53;9.23;;;8.32;;
14766;SDS011;7475;53.558;9.970;2023-06-19T07:03:20;11.82;;;10.60;;
14766;SDS011;7475;53.558;9.970;2023-06-19T07:05:47;8.73;;;7.93;;
14766;SDS011;7475;53.558;9.970;2023-06-19T07:08:12;11.43;;;8.02;;
14766;SDS011;7475;53.558;9.970;2023-06-19T07:10:38;13.85;;;8.73;;
14766;SDS011;7475;53.558;9.970;2023-06-19T07:13:03;8.95;;;8.05;;
14766;SDS011;7475;53.558;9.970;2023-06-19T07:15:28;12.30;;;8.50;;
14766;SDS011;7475;53.558;9.970;2023-06-19T07:17:54;8.88;;;8.05;;
14766;SDS011;7475;53.558;9.970;2023-06-19T07:20:19;8.90;;;8.10;;
14766;SDS011;7475;53.558;9.970;2023-06-19T07:22:45;8.75;;;7.95;;
14766;SDS011;7475;53.558;9.970;2023-06-19T07:25:11;8.20;;;7.50;;
14766;SDS011;7475;53.558;9.970;2023-06-19T07:27:37;11.80;;;8.25;;
14766;SDS011;7475;53.558;9.970;2023-06-19T07:30:03;12.70;;;8.30;;
14766;SDS011;7475;53.558;9.970;2023-06-19T07:32:29;13.65;;;9.07;;
14766;SDS011;7475;53.558;9.970;2023-06-19T07:34:54;9.73;;;7.72;;
14766;SDS011;7475;53.558;9.970;2023-06-19T07:37:20;10.30;;;7.78;;
14766;SDS011;7475;53.558;9.970;2023-06-19T07:39:49;11.65;;;7.85;;
14766;SDS011;7475;53.558;9.970;2023-06-19T07:42:15;10.15;;;8.07;;
14766;SDS011;7475;53.558;9.970;2023-06-19T07:44:42;10.07;;;7.75;;
14766;SDS011;7475;53.558;9.970;2023-06-19T07:47:07;15.18;;;7.85;;
14766;SDS011;7475;53.558;9.970;2023-06-19T07:49:33;9.70;;;8.50;;
14766;SDS011;7475;53.558;9.970;2023-06-19T07:51:59;16.10;;;8.60;;
14766;SDS011;7475;53.558;9.970;2023-06-19T07:54:24;33.70;;;9.05;;
14766;SDS011;7475;53.558;9.970;2023-06-19T07:56:50;15.02;;;8.13;;
14766;SDS011;7475;53.558;9.970;2023-06-19T07:59:15;14.82;;;7.53;;
14766;SDS011;7475;53.558;9.970;2023-06-19T08:01:41;10.48;;;8.63;;
14766;SDS011;7475;53.558;9.970;2023-06-19T08:04:07;16.13;;;8.00;;
14766;SDS011;7475;53.558;9.970;2023-06-19T08:06:32;14.13;;;8.60;;
14766;SDS011;7475;53.558;9.970;2023-06-19T08:08:58;13.82;;;9.40;;
14766;SDS011;7475;53.558;9.970;2023-06-19T08:11:23;11.07;;;8.27;;
14766;SDS011;7475;53.558;9.970;2023-06-19T08:13:48;13.60;;;8.52;;
14766;SDS011;7475;53.558;9.970;2023-06-19T08:16:14;8.68;;;7.78;;
14766;SDS011;7475;53.558;9.970;2023-06-19T08:18:39;11.00;;;8.27;;
14766;SDS011;7475;53.558;9.970;2023-06-19T08:21:04;10.23;;;8.57;;
14766;SDS011;7475;53.558;9.970;2023-06-19T08:23:30;10.65;;;8.50;;
14766;SDS011;7475;53.558;9.970;2023-06-19T08:25:55;10.27;;;8.73;;
14766;SDS011;7475;53.558;9.970;2023-06-19T08:28:20;16.05;;;9.02;;
14766;SDS011;7475;53.558;9.970;2023-06-19T08:30:46;13.25;;;9.13;;
14766;SDS011;7475;53.558;9.970;2023-06-19T08:33:12;11.88;;;8.77;;
14766;SDS011;7475;53.558;9.970;2023-06-19T08:35:38;14.63;;;8.25;;
14766;SDS011;7475;53.558;9.970;2023-06-19T08:38:04;14.40;;;8.82;;
14766;SDS011;7475;53.558;9.970;2023-06-19T08:40:29;10.90;;;8.38;;
14766;SDS011;7475;53.558;9.970;2023-06-19T08:42:54;10.48;;;8.50;;
14766;SDS011;7475;53.558;9.970;2023-06-19T08:45:21;12.60;;;8.65;;
14766;SDS011;7475;53.558;9.970;2023-06-19T08:47:47;25.77;;;9.77;;
14766;SDS011;7475;53.558;9.970;2023-06-19T08:50:13;11.75;;;8.50;;
14766;SDS011;7475;53.558;9.970;2023-06-19T08:52:38;12.23;;;8.93;;
14766;SDS011;7475;53.558;9.970;2023-06-19T08:55:04;19.38;;;8.77;;
14766;SDS011;7475;53.558;9.970;2023-06-19T08:57:39;9.07;;;7.97;;
14766;SDS011;7475;53.558;9.970;2023-06-19T09:00:05;14.95;;;8.13;;
14766;SDS011;7475;53.558;9.970;2023-06-19T09:02:43;13.27;;;7.93;;
14766;SDS011;7475;53.558;9.970;2023-06-19T09:05:10;11.80;;;8.10;;
14766;SDS011;7475;53.558;9.970;2023-06-19T09:07:43;11.80;;;9.30;;
14766;SDS011;7475;53.558;9.970;2023-06-19T09:10:16;10.77;;;8.10;;
14766;SDS011;7475;53.558;9.970;2023-06-19T09:12:43;9.85;;;8.82;;
14766;SDS011;7475;53.558;9.970;2023-06-19T09:15:13;10.68;;;9.02;;
14766;SDS011;7475;53.558;9.970;2023-06-19T09:17:40;17.58;;;13.55;;
14766;SDS011;7475;53.558;9.970;2023-06-19T09:20:05;15.45;;;10.15;;
14766;SDS011;7475;53.558;9.970;2023-06-19T09:22:32;11.35;;;9.02;;
14766;SDS011;7475;53.558;9.970;2023-06-19T09:25:01;12.30;;;8.27;;
14766;SDS011;7475;53.558;9.970;2023-06-19T09:27:31;10.20;;;9.05;;
14766;SDS011;7475;53.558;9.970;2023-06-19T09:29:58;9.35;;;8.35;;
14766;SDS011;7475;53.558;9.970;2023-06-19T09:34:50;11.68;;;10.25;;
14766;SDS011;7475;53.558;9.970;2023-06-19T09:37:20;10.50;;;9.10;;
14766;SDS011;7475;53.558;9.970;2023-06-19T09:39:50;9.10;;;7.55;;
14766;SDS011;7475;53.558;9.970;2023-06-19T09:42:18;9.45;;;8.48;;
14766;SDS011;7475;53.558;9.970;2023-06-19T09:44:51;8.73;;;7.95;;
14766;SDS011;7475;53.558;9.970;2023-06-19T09:47:23;13.52;;;8.57;;
14766;SDS011;7475;53.558;9.970;2023-06-19T09:49:54;12.30;;;8.23;;
14766;SDS011;7475;53.558;9.970;2023-06-19T09:52:21;13.10;;;8.20;;
14766;SDS011;7475;53.558;9.970;2023-06-19T09:54:50;17.08;;;9.43;;
14766;SDS011;7475;53.558;9.970;2023-06-19T09:57:17;9.15;;;8.30;;
14766;SDS011;7475;53.558;9.970;2023-06-19T09:59:44;8.88;;;7.95;;
14766;SDS011;7475;53.558;9.970;2023-06-19T10:02:13;11.15;;;9.18;;
14766;SDS011;7475;53.558;9.970;2023-06-19T10:04:50;8.60;;;7.72;;
14766;SDS011;7475;53.558;9.970;2023-06-19T10:07:18;9.13;;;8.23;;
14766;SDS011;7475;53.558;9.970;2023-06-19T10:12:22;8.75;;;7.95;;
14766;SDS011;7475;53.558;9.970;2023-06-19T10:14:47;8.90;;;8.05;;
14766;SDS011;7475;53.558;9.970;2023-06-19T10:17:16;10.80;;;8.00;;
14766;SDS011;7475;53.558;9.970;2023-06-19T10:19:49;9.15;;;7.85;;
14766;SDS011;7475;53.558;9.970;2023-06-19T10:22:19;8.20;;;7.50;;
14766;SDS011;7475;53.558;9.970;2023-06-19T10:24:49;12.35;;;7.38;;
14766;SDS011;7475;53.558;9.970;2023-06-19T10:27:19;8.18;;;7.38;;
14766;SDS011;7475;53.558;9.970;2023-06-19T10:29:51;8.35;;;7.50;;
14766;SDS011;7475;53.558;9.970;2023-06-19T10:32:17;11.50;;;10.50;;
14766;SDS011;7475;53.558;9.970;2023-06-19T10:34:45;9.02;;;7.40;;
14766;SDS011;7475;53.558;9.970;2023-06-19T10:37:12;9.95;;;7.82;;
14766;SDS011;7475;53.558;9.970;2023-06-19T10:39:37;12.13;;;10.98;;
14766;SDS011;7475;53.558;9.970;2023-06-19T10:42:09;10.70;;;6.90;;
14766;SDS011;7475;53.558;9.970;2023-06-19T10:44:35;9.00;;;7.65;;
14766;SDS011;7475;53.558;9.970;2023-06-19T10:47:02;7.03;;;6.43;;
14766;SDS011;7475;53.558;9.970;2023-06-19T10:49:27;8.05;;;7.20;;
14766;SDS011;7475;53.558;9.970;2023-06-19T10:51:53;12.18;;;7.43;;
14766;SDS011;7475;53.558;9.970;2023-06-19T10:54:24;8.85;;;7.35;;
14766;SDS011;7475;53.558;9.970;2023-06-19T10:56:58;9.38;;;7.90;;
14766;SDS011;7475;53.558;9.970;2023-06-19T10:59:28;7.18;;;6.57;;
14766;SDS011;7475;53.558;9.970;2023-06-19T11:01:53;7.93;;;7.30;;
14766;SDS011;7475;53.558;9.970;2023-06-19T11:04:18;7.65;;;6.95;;
14766;SDS011;7475;53.558;9.970;2023-06-19T11:06:44;7.78;;;7.18;;
14766;SDS011;7475;53.558;9.970;2023-06-19T11:09:11;8.20;;;7.45;;
14766;SDS011;7475;53.558;9.970;2023-06-19T11:11:42;7.20;;;6.63;;
14766;SDS011;7475;53.558;9.970;2023-06-19T11:14:08;6.43;;;5.82;;
14766;SDS011;7475;53.558;9.970;2023-06-19T11:16:34;5.90;;;5.40;;
14766;SDS011;7475;53.558;9.970;2023-06-19T11:19:03;6.00;;;5.40;;
14766;SDS011;7475;53.558;9.970;2023-06-19T11:21:29;5.72;;;5.32;;
14766;SDS011;7475;53.558;9.970;2023-06-19T11:23:57;7.72;;;5.80;;
14766;SDS011;7475;53.558;9.970;2023-06-19T11:26:24;5.60;;;5.20;;
14766;SDS011;7475;53.558;9.970;2023-06-19T11:28:50;7.80;;;6.30;;
14766;SDS011;7475;53.558;9.970;2023-06-19T11:31:15;5.97;;;5.37;;
14766;SDS011;7475;53.558;9.970;2023-06-19T11:33:40;6.53;;;5.90;;
14766;SDS011;7475;53.558;9.970;2023-06-19T11:36:05;6.32;;;5.35;;
14766;SDS011;7475;53.558;9.970;2023-06-19T11:38:32;6.45;;;4.90;;
14766;SDS011;7475;53.558;9.970;2023-06-19T11:40:59;5.55;;;5.05;;
14766;SDS011;7475;53.558;9.970;2023-06-19T11:43:25;5.43;;;4.93;;
14766;SDS011;7475;53.558;9.970;2023-06-19T11:46:05;5.53;;;5.13;;
14766;SDS011;7475;53.558;9.970;2023-06-19T11:48:31;7.18;;;5.20;;
14766;SDS011;7475;53.558;9.970;2023-06-19T11:50:57;5.40;;;5.00;;
14766;SDS011;7475;53.558;9.970;2023-06-19T11:53:23;6.60;;;5.57;;
14766;SDS011;7475;53.558;9.970;2023-06-19T11:55:52;7.45;;;5.68;;
14766;SDS011;7475;53.558;9.970;2023-06-19T11:58:17;5.38;;;4.88;;
14766;SDS011;7475;53.558;9.970;2023-06-19T12:00:46;5.95;;;5.35;;
14766;SDS011;7475;53.558;9.970;2023-06-19T12:03:11;5.72;;;5.32;;
14766;SDS011;7475;53.558;9.970;2023-06-19T12:05:37;6.32;;;5.65;;
14766;SDS011;7475;53.558;9.970;2023-06-19T12:08:03;5.70;;;5.20;;
14766;SDS011;7475;53.558;9.970;2023-06-19T12:10:29;6.32;;;5.18;;
14766;SDS011;7475;53.558;9.970;2023-06-19T12:12:55;5.80;;;5.30;;
14766;SDS011;7475;53.558;9.970;2023-06-19T12:15:20;5.35;;;4.85;;
14766;SDS011;7475;53.558;9.970;2023-06-19T12:17:46;6.00;;;5.40;;
14766;SDS011;7475;53.558;9.970;2023-06-19T12:20:11;8.95;;;5.50;;
14766;SDS011;7475;53.558;9.970;2023-06-19T12:22:38;5.88;;;5.38;;
14766;SDS011;7475;53.558;9.970;2023-06-19T12:25:04;6.22;;;4.88;;
14766;SDS011;7475;53.558;9.970;2023-06-19T12:27:30;5.47;;;5.07;;
14766;SDS011;7475;53.558;9.970;2023-06-19T12:29:55;5.65;;;4.82;;
14766;SDS011;7475;53.558;9.970;2023-06-19T12:32:20;5.68;;;5.22;;
14766;SDS011;7475;53.558;9.970;2023-06-19T12:34:46;6.88;;;5.50;;
14766;SDS011;7475;53.558;9.970;2023-06-19T12:37:13;7.38;;;5.28;;
14766;SDS011;7475;53.558;9.970;2023-06-19T12:39:44;5.90;;;5.00;;
14766;SDS011;7475;53.558;9.970;2023-06-19T12:42:09;7.57;;;5.25;;
14766;SDS011;7475;53.558;9.970;2023-06-19T12:44:38;6.15;;;4.75;;
14766;SDS011;7475;53.558;9.970;2023-06-19T12:47:04;6.13;;;5.15;;
14766;SDS011;7475;53.558;9.970;2023-06-19T12:49:30;5.35;;;4.50;;
14766;SDS011;7475;53.558;9.970;2023-06-19T12:51:56;7.35;;;5.03;;
14766;SDS011;7475;53.558;9.970;2023-06-19T12:54:22;5.10;;;4.60;;
14766;SDS011;7475;53.558;9.970;2023-06-19T12:56:47;5.75;;;5.03;;
14766;SDS011;7475;53.558;9.970;2023-06-19T12:59:13;5.95;;;4.18;;
14766;SDS011;7475;53.558;9.970;2023-06-19T13:01:39;7.47;;;5.20;;
14766;SDS011;7475;53.558;9.970;2023-06-19T13:04:04;7.03;;;5.30;;
14766;SDS011;7475;53.558;9.970;2023-06-19T13:06:29;5.80;;;5.30;;
14766;SDS011;7475;53.558;9.970;2023-06-19T13:08:55;5.53;;;4.93;;
14766;SDS011;7475;53.558;9.970;2023-06-19T13:11:20;5.68;;;4.63;;
14766;SDS011;7475;53.558;9.970;2023-06-19T13:13:45;8.80;;;4.70;;
14766;SDS011;7475;53.558;9.970;2023-06-19T13:16:10;5.78;;;4.03;;
14766;SDS011;7475;53.558;9.970;2023-06-19T13:18:36;4.53;;;4.10;;
14766;SDS011;7475;53.558;9.970;2023-06-19T13:21:01;5.82;;;3.50;;
14766;SDS011;7475;53.558;9.970;2023-06-19T13:23:26;5.03;;;4.03;;
14766;SDS011;7475;53.558;9.970;2023-06-19T13:25:52;4.95;;;3.97;;
14766;SDS011;7475;53.558;9.970;2023-06-19T13:28:17;5.05;;;4.15;;
14766;SDS011;7475;53.558;9.970;2023-06-19T13:30:42;4.68;;;3.75;;
14766;SDS011;7475;53.558;9.970;2023-06-19T13:33:08;6.78;;;4.13;;
14766;SDS011;7475;53.558;9.970;2023-06-19T13:35:34;5.95;;;4.70;;
14766;SDS011;7475;53.558;9.970;2023-06-19T13:38:00;6.22;;;4.60;;
14766;SDS011;7475;53.558;9.970;2023-06-19T13:40:25;6.28;;;4.38;;
14766;SDS011;7475;53.558;9.970;2023-06-19T13:42:51;9.32;;;4.72;;
14766;SDS011;7475;53.558;9.970;2023-06-19T13:45:16;5.13;;;4.60;;
14766;SDS011;7475;53.558;9.970;2023-06-19T13:47:41;6.30;;;4.63;;
14766;SDS011;7475;53.558;9.970;2023-06-19T13:50:07;6.28;;;4.20;;
14766;SDS011;7475;53.558;9.970;2023-06-19T13:52:32;5.78;;;4.10;;
14766;SDS011;7475;53.558;9.970;2023-06-19T13:54:58;7.55;;;3.92;;
14766;SDS011;7475;53.558;9.970;2023-06-19T13:57:23;6.28;;;4.95;;
14766;SDS011;7475;53.558;9.970;2023-06-19T13:59:48;7.28;;;6.00;;
14766;SDS011;7475;53.558;9.970;2023-06-19T14:02:14;5.75;;;4.68;;
14766;SDS011;7475;53.558;9.970;2023-06-19T14:04:39;4.65;;;4.20;;
14766;SDS011;7475;53.558;9.970;2023-06-19T14:07:05;7.40;;;3.50;;
14766;SDS011;7475;53.558;9.970;2023-06-19T14:09:30;4.30;;;3.80;;
14766;SDS011;7475;53.558;9.970;2023-06-19T14:11:56;3.70;;;3.40;;
14766;SDS011;7475;53.558;9.970;2023-06-19T14:14:21;6.18;;;4.10;;
14766;SDS011;7475;53.558;9.970;2023-06-19T14:16:47;6.10;;;3.97;;
14766;SDS011;7475;53.558;9.970;2023-06-19T14:19:13;4.60;;;4.00;;
14766;SDS011;7475;53.558;9.970;2023-06-19T14:21:39;4.10;;;3.70;;
14766;SDS011;7475;53.558;9.970;2023-06-19T14:24:04;6.25;;;4.03;;
14766;SDS011;7475;53.558;9.970;2023-06-19T14:26:29;5.90;;;4.15;;
14766;SDS011;7475;53.558;9.970;2023-06-19T14:28:55;4.68;;;3.78;;
14766;SDS011;7475;53.558;9.970;2023-06-19T14:31:22;6.45;;;3.97;;
14766;SDS011;7475;53.558;9.970;2023-06-19T14:33:48;6.60;;;4.30;;
14766;SDS011;7475;53.558;9.970;2023-06-19T14:36:13;3.83;;;3.53;;
14766;SDS011;7475;53.558;9.970;2023-06-19T14:38:39;6.57;;;4.03;;
14766;SDS011;7475;53.558;9.970;2023-06-19T14:41:04;4.50;;;4.10;;
14766;SDS011;7475;53.558;9.970;2023-06-19T14:43:29;4.30;;;3.90;;
14766;SDS011;7475;53.558;9.970;2023-06-19T14:45:57;4.70;;;4.30;;
14766;SDS011;7475;53.558;9.970;2023-06-19T14:48:22;9.57;;;4.70;;
14766;SDS011;7475;53.558;9.970;2023-06-19T14:50:47;4.68;;;3.80;;
14766;SDS011;7475;53.558;9.970;2023-06-19T14:53:13;4.40;;;4.00;;
14766;SDS011;7475;53.558;9.970;2023-06-19T14:55:38;5.93;;;4.15;;
14766;SDS011;7475;53.558;9.970;2023-06-19T14:58:08;5.82;;;4.00;;
14766;SDS011;7475;53.558;9.970;2023-06-19T15:00:33;4.18;;;3.13;;